sensor_id;sensor_type;location;lat;lon;timestamp;P1;durP1;ratioP1;P2;durP2;ratioP2
14592;SDS011;7383;52.354;9.756;2023-04-25T00:02:10;3.83;;;3.20;;
14592;SDS011;7383;52.354;9.756;2023-04-25T00:04:38;4.45;;;3.63;;
14592;SDS011;7383;52.354;9.756;2023-04-25T00:07:04;6.80;;;3.90;;
14592;SDS011;7383;52.354;9.756;2023-04-25T00:09:33;5.65;;;3.60;;
14592;SDS011;7383;52.354;9.756;2023-04-25T00:12:00;3.50;;;3.20;;
14592;SDS011;7383;52.354;9.756;2023-04-25T00:14:27;5.32;;;3.60;;
14592;SDS011;7383;52.354;9.756;2023-04-25T00:16:53;4.35;;;3.28;;
14592;SDS011;7383;52.354;9.756;2023-04-25T00:19:20;3.97;;;3.30;;
14592;SDS011;7383;52.354;9.756;2023-04-25T00:21:46;6.80;;;3.30;;
14592;SDS011;7383;52.354;9.756;2023-04-25T00:24:14;4.50;;;3.28;;
14592;SDS011;7383;52.354;9.756;2023-04-25T00:26:41;4.10;;;2.90;;
14592;SDS011;7383;52.354;9.756;2023-04-25T00:29:08;4.88;;;3.47;;
14592;SDS011;7383;52.354;9.756;2023-04-25T00:31:34;4.15;;;3.20;;
14592;SDS011;7383;52.354;9.756;2023-04-25T00:34:01;4.00;;;3.08;;
14592;SDS011;7383;52.354;9.756;2023-04-25T00:36:27;5.05;;;2.90;;
14592;SDS011;7383;52.354;9.756;2023-04-25T00:38:55;5.15;;;3.35;;
14592;SDS011;7383;52.354;9.756;2023-04-25T00:41:22;4.32;;;3.20;;
14592;SDS011;7383;52.354;9.756;2023-04-25T00:43:50;3.55;;;3.25;;
14592;SDS011;7383;52.354;9.756;2023-04-25T00:46:17;3.58;;;2.95;;
14592;SDS011;7383;52.354;9.756;2023-04-25T00:48:56;3.38;;;3.08;;
14592;SDS011;7383;52.354;9.756;2023-04-25T00:51:22;4.60;;;3.13;;
14592;SDS011;7383;52.354;9.756;2023-04-25T00:53:51;3.90;;;3.13;;
14592;SDS011;7383;52.354;9.756;2023-04-25T00:56:18;4.13;;;3.00;;
14592;SDS011;7383;52.354;9.756;2023-04-25T00:58:46;5.80;;;3.85;;
14592;SDS011;7383;52.354;9.756;2023-04-25T01:01:15;4.72;;;3.33;;
14592;SDS011;7383;52.354;9.756;2023-04-25T01:03:42;3.63;;;3.13;;
14592;SDS011;7383;52.354;9.756;2023-04-25T01:06:11;4.82;;;3.80;;
14592;SDS011;7383;52.354;9.756;2023-04-25T01:08:38;4.22;;;3.50;;
14592;SDS011;7383;52.354;9.756;2023-04-25T01:11:05;4.65;;;3.85;;
14592;SDS011;7383;52.354;9.756;2023-04-25T01:13:32;5.20;;;3.47;;
14592;SDS011;7383;52.354;9.756;2023-04-25T01:15:59;3.92;;;3.50;;
14592;SDS011;7383;52.354;9.756;2023-04-25T01:18:28;4.57;;;3.28;;
14592;SDS011;7383;52.354;9.756;2023-04-25T01:23:27;3.72;;;3.42;;
14592;SDS011;7383;52.354;9.756;2023-04-25T01:25:54;3.47;;;3.05;;
14592;SDS011;7383;52.354;9.756;2023-04-25T01:28:21;4.43;;;3.20;;
14592;SDS011;7383;52.354;9.756;2023-04-25T01:30:48;6.50;;;3.42;;
14592;SDS011;7383;52.354;9.756;2023-04-25T01:33:14;5.38;;;4.07;;
14592;SDS011;7383;52.354;9.756;2023-04-25T01:35:42;4.28;;;3.88;;
14592;SDS011;7383;52.354;9.756;2023-04-25T01:38:08;6.20;;;4.30;;
14592;SDS011;7383;52.354;9.756;2023-04-25T01:40:39;5.20;;;4.10;;
14592;SDS011;7383;52.354;9.756;2023-04-25T01:43:07;5.05;;;4.20;;
14592;SDS011;7383;52.354;9.756;2023-04-25T01:45:36;5.50;;;4.68;;
14592;SDS011;7383;52.354;9.756;2023-04-25T01:48:06;4.75;;;4.22;;
14592;SDS011;7383;52.354;9.756;2023-04-25T01:50:32;5.78;;;4.15;;
14592;SDS011;7383;52.354;9.756;2023-04-25T01:53:01;5.93;;;3.70;;
14592;SDS011;7383;52.354;9.756;2023-04-25T01:55:28;6.45;;;4.20;;
14592;SDS011;7383;52.354;9.756;2023-04-25T01:57:56;4.18;;;3.67;;
14592;SDS011;7383;52.354;9.756;2023-04-25T02:00:23;4.53;;;3.75;;
14592;SDS011;7383;52.354;9.756;2023-04-25T02:02:50;4.22;;;3.83;;
14592;SDS011;7383;52.354;9.756;2023-04-25T02:05:18;6.32;;;4.63;;
14592;SDS011;7383;52.354;9.756;2023-04-25T02:07:45;4.40;;;3.97;;
14592;SDS011;7383;52.354;9.756;2023-04-25T02:10:12;4.85;;;4.00;;
14592;SDS011;7383;52.354;9.756;2023-04-25T02:12:38;3.50;;;3.20;;
14592;SDS011;7383;52.354;9.756;2023-04-25T02:15:08;6.03;;;4.22;;
14592;SDS011;7383;52.354;9.756;2023-04-25T02:17:35;5.82;;;3.78;;
14592;SDS011;7383;52.354;9.756;2023-04-25T02:20:03;4.63;;;3.80;;
14592;SDS011;7383;52.354;9.756;2023-04-25T02:22:30;4.57;;;3.53;;
14592;SDS011;7383;52.354;9.756;2023-04-25T02:24:57;5.07;;;4.00;;
14592;SDS011;7383;52.354;9.756;2023-04-25T02:27:23;4.63;;;3.88;;
14592;SDS011;7383;52.354;9.756;2023-04-25T02:29:50;5.72;;;4.30;;
14592;SDS011;7383;52.354;9.756;2023-04-25T02:32:20;5.93;;;4.05;;
14592;SDS011;7383;52.354;9.756;2023-04-25T02:34:47;3.97;;;3.38;;
14592;SDS011;7383;52.354;9.756;2023-04-25T02:37:15;3.33;;;2.95;;
14592;SDS011;7383;52.354;9.756;2023-04-25T02:39:41;5.03;;;2.97;;
14592;SDS011;7383;52.354;9.756;2023-04-25T02:42:08;6.38;;;3.10;;
14592;SDS011;7383;52.354;9.756;2023-04-25T02:44:37;5.85;;;2.78;;
14592;SDS011;7383;52.354;9.756;2023-04-25T02:47:06;5.40;;;3.13;;
14592;SDS011;7383;52.354;9.756;2023-04-25T02:49:34;4.60;;;2.60;;
14592;SDS011;7383;52.354;9.756;2023-04-25T02:52:00;5.63;;;2.70;;
14592;SDS011;7383;52.354;9.756;2023-04-25T02:54:27;4.90;;;2.63;;
14592;SDS011;7383;52.354;9.756;2023-04-25T02:56:54;5.97;;;3.17;;
14592;SDS011;7383;52.354;9.756;2023-04-25T02:59:21;3.95;;;2.50;;
14592;SDS011;7383;52.354;9.756;2023-04-25T03:01:50;5.72;;;2.53;;
14592;SDS011;7383;52.354;9.756;2023-04-25T03:04:17;3.90;;;2.30;;
14592;SDS011;7383;52.354;9.756;2023-04-25T03:06:45;5.63;;;2.55;;
14592;SDS011;7383;52.354;9.756;2023-04-25T03:09:12;4.97;;;2.60;;
14592;SDS011;7383;52.354;9.756;2023-04-25T03:11:38;5.13;;;2.65;;
14592;SDS011;7383;52.354;9.756;2023-04-25T03:14:06;7.32;;;2.85;;
14592;SDS011;7383;52.354;9.756;2023-04-25T03:16:32;4.85;;;2.53;;
14592;SDS011;7383;52.354;9.756;2023-04-25T03:18:59;6.90;;;2.70;;
14592;SDS011;7383;52.354;9.756;2023-04-25T03:21:25;4.53;;;2.40;;
14592;SDS011;7383;52.354;9.756;2023-04-25T03:23:53;5.00;;;2.53;;
14592;SDS011;7383;52.354;9.756;2023-04-25T03:26:20;3.92;;;2.83;;
14592;SDS011;7383;52.354;9.756;2023-04-25T03:28:47;4.68;;;2.50;;
14592;SDS011;7383;52.354;9.756;2023-04-25T03:31:13;6.15;;;2.75;;
14592;SDS011;7383;52.354;9.756;2023-04-25T03:33:40;8.23;;;3.17;;
14592;SDS011;7383;52.354;9.756;2023-04-25T03:36:07;6.05;;;2.70;;
14592;SDS011;7383;52.354;9.756;2023-04-25T03:38:36;3.92;;;2.50;;
14592;SDS011;7383;52.354;9.756;2023-04-25T03:41:04;3.58;;;2.30;;
14592;SDS011;7383;52.354;9.756;2023-04-25T03:43:30;4.63;;;3.30;;
14592;SDS011;7383;52.354;9.756;2023-04-25T03:45:57;3.95;;;2.60;;
14592;SDS011;7383;52.354;9.756;2023-04-25T03:48:23;5.63;;;2.75;;
14592;SDS011;7383;52.354;9.756;2023-04-25T03:50:51;5.82;;;2.95;;
14592;SDS011;7383;52.354;9.756;2023-04-25T03:53:17;6.75;;;2.50;;
14592;SDS011;7383;52.354;9.756;2023-04-25T03:55:44;5.45;;;2.95;;
14592;SDS011;7383;52.354;9.756;2023-04-25T03:58:13;6.30;;;3.45;;
14592;SDS011;7383;52.354;9.756;2023-04-25T04:00:44;5.13;;;2.63;;
14592;SDS011;7383;52.354;9.756;2023-04-25T04:03:11;6.10;;;2.97;;
14592;SDS011;7383;52.354;9.756;2023-04-25T04:05:38;3.92;;;2.53;;
14592;SDS011;7383;52.354;9.756;2023-04-25T04:08:05;6.30;;;2.80;;
14592;SDS011;7383;52.354;9.756;2023-04-25T04:10:33;7.30;;;2.70;;
14592;SDS011;7383;52.354;9.756;2023-04-25T04:13:00;4.95;;;2.70;;
14592;SDS011;7383;52.354;9.756;2023-04-25T04:15:28;7.20;;;3.08;;
14592;SDS011;7383;52.354;9.756;2023-04-25T04:17:57;5.82;;;3.22;;
14592;SDS011;7383;52.354;9.756;2023-04-25T04:20:27;5.03;;;3.03;;
14592;SDS011;7383;52.354;9.756;2023-04-25T04:22:54;5.30;;;2.90;;
14592;SDS011;7383;52.354;9.756;2023-04-25T04:25:22;6.07;;;2.92;;
14592;SDS011;7383;52.354;9.756;2023-04-25T04:27:49;7.05;;;3.35;;
14592;SDS011;7383;52.354;9.756;2023-04-25T04:30:19;5.82;;;2.72;;
14592;SDS011;7383;52.354;9.756;2023-04-25T04:32:48;6.07;;;3.03;;
14592;SDS011;7383;52.354;9.756;2023-04-25T04:35:14;5.55;;;2.92;;
14592;SDS011;7383;52.354;9.756;2023-04-25T04:37:41;4.18;;;2.40;;
14592;SDS011;7383;52.354;9.756;2023-04-25T04:40:09;5.80;;;3.00;;
14592;SDS011;7383;52.354;9.756;2023-04-25T04:42:37;5.82;;;2.40;;
14592;SDS011;7383;52.354;9.756;2023-04-25T04:45:04;5.25;;;2.60;;
14592;SDS011;7383;52.354;9.756;2023-04-25T04:47:31;7.50;;;3.08;;
14592;SDS011;7383;52.354;9.756;2023-04-25T04:50:03;5.75;;;3.10;;
14592;SDS011;7383;52.354;9.756;2023-04-25T04:52:32;7.13;;;2.83;;
14592;SDS011;7383;52.354;9.756;2023-04-25T04:54:58;5.75;;;3.20;;
14592;SDS011;7383;52.354;9.756;2023-04-25T04:57:27;4.65;;;2.78;;
14592;SDS011;7383;52.354;9.756;2023-04-25T04:59:53;5.57;;;2.83;;
14592;SDS011;7383;52.354;9.756;2023-04-25T05:02:20;4.75;;;2.80;;
14592;SDS011;7383;52.354;9.756;2023-04-25T05:04:47;7.55;;;3.42;;
14592;SDS011;7383;52.354;9.756;2023-04-25T05:07:19;5.07;;;2.92;;
14592;SDS011;7383;52.354;9.756;2023-04-25T05:09:47;7.40;;;3.53;;
14592;SDS011;7383;52.354;9.756;2023-04-25T05:12:16;5.45;;;2.70;;
14592;SDS011;7383;52.354;9.756;2023-04-25T05:14:44;4.18;;;2.50;;
14592;SDS011;7383;52.354;9.756;2023-04-25T05:17:11;8.05;;;3.35;;
14592;SDS011;7383;52.354;9.756;2023-04-25T05:19:38;4.85;;;2.83;;
14592;SDS011;7383;52.354;9.756;2023-04-25T05:22:07;6.05;;;3.40;;
14592;SDS011;7383;52.354;9.756;2023-04-25T05:24:36;7.13;;;3.65;;
14592;SDS011;7383;52.354;9.756;2023-04-25T05:27:02;4.95;;;2.80;;
14592;SDS011;7383;52.354;9.756;2023-04-25T05:29:30;6.25;;;3.05;;
14592;SDS011;7383;52.354;9.756;2023-04-25T05:32:00;11.30;;;2.85;;
14592;SDS011;7383;52.354;9.756;2023-04-25T05:34:27;8.23;;;3.67;;
14592;SDS011;7383;52.354;9.756;2023-04-25T05:36:53;6.80;;;2.90;;
14592;SDS011;7383;52.354;9.756;2023-04-25T05:39:21;6.97;;;3.15;;
14592;SDS011;7383;52.354;9.756;2023-04-25T05:41:53;7.97;;;3.30;;
14592;SDS011;7383;52.354;9.756;2023-04-25T05:44:22;5.55;;;2.97;;
14592;SDS011;7383;52.354;9.756;2023-04-25T05:46:49;6.43;;;3.05;;
14592;SDS011;7383;52.354;9.756;2023-04-25T05:49:15;9.18;;;3.17;;
14592;SDS011;7383;52.354;9.756;2023-04-25T05:51:42;6.10;;;2.97;;
14592;SDS011;7383;52.354;9.756;2023-04-25T05:54:11;6.82;;;3.03;;
14592;SDS011;7383;52.354;9.756;2023-04-25T05:56:38;4.55;;;2.63;;
14592;SDS011;7383;52.354;9.756;2023-04-25T05:59:07;5.03;;;2.80;;
14592;SDS011;7383;52.354;9.756;2023-04-25T06:01:33;5.32;;;2.50;;
14592;SDS011;7383;52.354;9.756;2023-04-25T06:04:00;6.38;;;3.10;;
14592;SDS011;7383;52.354;9.756;2023-04-25T06:06:29;6.93;;;3.03;;
14592;SDS011;7383;52.354;9.756;2023-04-25T06:08:57;7.40;;;3.10;;
14592;SDS011;7383;52.354;9.756;2023-04-25T07:16:14;7.25;;;2.75;;
14592;SDS011;7383;52.354;9.756;2023-04-25T07:18:42;6.30;;;2.80;;
14592;SDS011;7383;52.354;9.756;2023-04-25T07:21:09;4.38;;;2.45;;
14592;SDS011;7383;52.354;9.756;2023-04-25T07:23:36;6.25;;;3.05;;
14592;SDS011;7383;52.354;9.756;2023-04-25T07:26:02;7.38;;;3.10;;
14592;SDS011;7383;52.354;9.756;2023-04-25T07:28:28;7.80;;;3.15;;
14592;SDS011;7383;52.354;9.756;2023-04-25T07:30:55;5.30;;;2.33;;
14592;SDS011;7383;52.354;9.756;2023-04-25T07:33:24;6.45;;;2.80;;
14592;SDS011;7383;52.354;9.756;2023-04-25T07:35:51;4.57;;;2.22;;
14592;SDS011;7383;52.354;9.756;2023-04-25T07:38:23;3.25;;;1.92;;
14592;SDS011;7383;52.354;9.756;2023-04-25T07:40:49;4.50;;;2.47;;
14592;SDS011;7383;52.354;9.756;2023-04-25T07:43:16;3.25;;;2.00;;
14592;SDS011;7383;52.354;9.756;2023-04-25T07:45:43;3.58;;;2.13;;
14592;SDS011;7383;52.354;9.756;2023-04-25T07:48:09;8.25;;;2.92;;
14592;SDS011;7383;52.354;9.756;2023-04-25T07:50:37;3.78;;;2.20;;
14592;SDS011;7383;52.354;9.756;2023-04-25T07:53:04;6.22;;;3.50;;
14592;SDS011;7383;52.354;9.756;2023-04-25T07:55:30;4.05;;;2.42;;
14592;SDS011;7383;52.354;9.756;2023-04-25T07:57:57;6.97;;;3.28;;
14592;SDS011;7383;52.354;9.756;2023-04-25T08:00:23;4.07;;;2.58;;
14592;SDS011;7383;52.354;9.756;2023-04-25T08:02:50;3.05;;;2.20;;
14592;SDS011;7383;52.354;9.756;2023-04-25T08:05:16;6.78;;;2.63;;
14592;SDS011;7383;52.354;9.756;2023-04-25T08:07:44;5.57;;;2.40;;
14592;SDS011;7383;52.354;9.756;2023-04-25T08:10:11;3.88;;;2.00;;
14592;SDS011;7383;52.354;9.756;2023-04-25T08:12:37;3.13;;;2.00;;
14592;SDS011;7383;52.354;9.756;2023-04-25T08:15:04;4.22;;;1.95;;
14592;SDS011;7383;52.354;9.756;2023-04-25T08:17:32;5.65;;;2.50;;
14592;SDS011;7383;52.354;9.756;2023-04-25T08:19:58;3.15;;;2.25;;
14592;SDS011;7383;52.354;9.756;2023-04-25T08:22:29;3.35;;;2.00;;
14592;SDS011;7383;52.354;9.756;2023-04-25T08:24:57;5.35;;;2.72;;
14592;SDS011;7383;52.354;9.756;2023-04-25T08:27:24;6.47;;;2.85;;
14592;SDS011;7383;52.354;9.756;2023-04-25T08:29:50;3.95;;;2.38;;
14592;SDS011;7383;52.354;9.756;2023-04-25T08:32:18;5.72;;;2.70;;
14592;SDS011;7383;52.354;9.756;2023-04-25T08:34:47;5.28;;;2.05;;
14592;SDS011;7383;52.354;9.756;2023-04-25T08:37:13;3.03;;;1.92;;
14592;SDS011;7383;52.354;9.756;2023-04-25T08:40:01;2.88;;;2.05;;
14592;SDS011;7383;52.354;9.756;2023-04-25T08:42:36;2.60;;;1.75;;
14592;SDS011;7383;52.354;9.756;2023-04-25T08:45:14;5.57;;;2.08;;
14592;SDS011;7383;52.354;9.756;2023-04-25T08:47:42;2.70;;;1.88;;
14592;SDS011;7383;52.354;9.756;2023-04-25T08:50:13;3.78;;;1.77;;
14592;SDS011;7383;52.354;9.756;2023-04-25T08:52:42;2.38;;;1.60;;
14592;SDS011;7383;52.354;9.756;2023-04-25T09:05:07;2.35;;;1.60;;
14592;SDS011;7383;52.354;9.756;2023-04-25T09:07:50;1.77;;;1.48;;
14592;SDS011;7383;52.354;9.756;2023-04-25T09:10:50;3.80;;;1.50;;
14592;SDS011;7383;52.354;9.756;2023-04-25T09:14:50;2.55;;;1.50;;
14592;SDS011;7383;52.354;9.756;2023-04-25T09:16:58;1.92;;;1.42;;
14592;SDS011;7383;52.354;9.756;2023-04-25T09:19:29;2.35;;;1.75;;
14592;SDS011;7383;52.354;9.756;2023-04-25T09:22:12;3.20;;;1.73;;
14592;SDS011;7383;52.354;9.756;2023-04-25T09:24:46;1.65;;;1.08;;
14592;SDS011;7383;52.354;9.756;2023-04-25T09:27:17;2.17;;;1.58;;
14592;SDS011;7383;52.354;9.756;2023-04-25T09:29:45;2.53;;;1.30;;
14592;SDS011;7383;52.354;9.756;2023-04-25T09:32:16;3.40;;;1.50;;
14592;SDS011;7383;52.354;9.756;2023-04-25T09:34:45;1.20;;;1.00;;
14592;SDS011;7383;52.354;9.756;2023-04-25T09:37:16;2.83;;;1.35;;
14592;SDS011;7383;52.354;9.756;2023-04-25T09:39:45;2.08;;;1.35;;
14592;SDS011;7383;52.354;9.756;2023-04-25T09:42:12;2.55;;;1.30;;
14592;SDS011;7383;52.354;9.756;2023-04-25T09:44:42;1.50;;;1.33;;
14592;SDS011;7383;52.354;9.756;2023-04-25T09:47:11;2.47;;;1.33;;
14592;SDS011;7383;52.354;9.756;2023-04-25T09:49:40;2.08;;;1.30;;
14592;SDS011;7383;52.354;9.756;2023-04-25T09:52:10;2.95;;;1.40;;
14592;SDS011;7383;52.354;9.756;2023-04-25T09:54:40;4.18;;;1.30;;
14592;SDS011;7383;52.354;9.756;2023-04-25T09:57:09;1.70;;;1.40;;
14592;SDS011;7383;52.354;9.756;2023-04-25T09:59:38;1.55;;;1.15;;
14592;SDS011;7383;52.354;9.756;2023-04-25T10:02:08;2.28;;;1.38;;
14592;SDS011;7383;52.354;9.756;2023-04-25T10:04:36;1.63;;;1.00;;
14592;SDS011;7383;52.354;9.756;2023-04-25T10:07:04;2.20;;;1.33;;
14592;SDS011;7383;52.354;9.756;2023-04-25T10:09:33;1.70;;;1.30;;
14592;SDS011;7383;52.354;9.756;2023-04-25T10:12:06;1.80;;;1.30;;
14592;SDS011;7383;52.354;9.756;2023-04-25T10:14:34;2.30;;;1.40;;
14592;SDS011;7383;52.354;9.756;2023-04-25T10:17:00;2.08;;;1.30;;
14592;SDS011;7383;52.354;9.756;2023-04-25T10:19:27;2.20;;;1.42;;
14592;SDS011;7383;52.354;9.756;2023-04-25T10:21:55;2.13;;;1.40;;
14592;SDS011;7383;52.354;9.756;2023-04-25T10:24:35;2.63;;;1.33;;
14592;SDS011;7383;52.354;9.756;2023-04-25T10:27:03;3.05;;;1.52;;
14592;SDS011;7383;52.354;9.756;2023-04-25T10:29:31;2.10;;;1.35;;
14592;SDS011;7383;52.354;9.756;2023-04-25T10:31:59;2.10;;;1.35;;
14592;SDS011;7383;52.354;9.756;2023-04-25T10:34:37;2.78;;;1.55;;
14592;SDS011;7383;52.354;9.756;2023-04-25T10:37:05;2.25;;;1.30;;
14592;SDS011;7383;52.354;9.756;2023-04-25T10:39:39;2.13;;;1.75;;
14592;SDS011;7383;52.354;9.756;2023-04-25T10:42:06;2.17;;;1.40;;
14592;SDS011;7383;52.354;9.756;2023-04-25T10:44:34;3.22;;;1.73;;
14592;SDS011;7383;52.354;9.756;2023-04-25T10:47:02;2.63;;;1.60;;
14592;SDS011;7383;52.354;9.756;2023-04-25T10:49:31;2.83;;;1.80;;
14592;SDS011;7383;52.354;9.756;2023-04-25T10:52:14;3.55;;;1.50;;
14592;SDS011;7383;52.354;9.756;2023-04-25T10:54:53;4.20;;;2.00;;
14592;SDS011;7383;52.354;9.756;2023-04-25T10:57:27;3.00;;;1.63;;
14592;SDS011;7383;52.354;9.756;2023-04-25T10:59:59;1.50;;;1.40;;
14592;SDS011;7383;52.354;9.756;2023-04-25T11:02:26;1.98;;;1.60;;
14592;SDS011;7383;52.354;9.756;2023-04-25T11:04:53;3.50;;;2.13;;
14592;SDS011;7383;52.354;9.756;2023-04-25T11:07:23;1.40;;;1.23;;
14592;SDS011;7383;52.354;9.756;2023-04-25T11:10:01;3.50;;;1.30;;
14592;SDS011;7383;52.354;9.756;2023-04-25T11:12:29;1.67;;;1.20;;
14592;SDS011;7383;52.354;9.756;2023-04-25T11:15:00;2.00;;;1.40;;
14592;SDS011;7383;52.354;9.756;2023-04-25T11:17:28;3.50;;;1.50;;
14592;SDS011;7383;52.354;9.756;2023-04-25T11:19:55;2.47;;;1.42;;
14592;SDS011;7383;52.354;9.756;2023-04-25T11:22:22;2.13;;;1.23;;
14592;SDS011;7383;52.354;9.756;2023-04-25T11:24:49;2.13;;;1.48;;
14592;SDS011;7383;52.354;9.756;2023-04-25T11:27:17;2.80;;;1.58;;
14592;SDS011;7383;52.354;9.756;2023-04-25T11:29:43;1.50;;;1.40;;
14592;SDS011;7383;52.354;9.756;2023-04-25T11:32:10;2.95;;;1.25;;
14592;SDS011;7383;52.354;9.756;2023-04-25T11:34:39;1.53;;;1.40;;
14592;SDS011;7383;52.354;9.756;2023-04-25T11:37:09;2.08;;;1.40;;
14592;SDS011;7383;52.354;9.756;2023-04-25T11:39:36;3.47;;;1.92;;
14592;SDS011;7383;52.354;9.756;2023-04-25T11:42:03;2.90;;;1.35;;
14592;SDS011;7383;52.354;9.756;2023-04-25T11:44:32;3.50;;;1.45;;
14592;SDS011;7383;52.354;9.756;2023-04-25T11:46:58;1.98;;;1.55;;
14592;SDS011;7383;52.354;9.756;2023-04-25T11:49:25;2.08;;;1.30;;
14592;SDS011;7383;52.354;9.756;2023-04-25T11:51:57;2.30;;;1.20;;
14592;SDS011;7383;52.354;9.756;2023-04-25T11:54:24;1.80;;;1.60;;
14592;SDS011;7383;52.354;9.756;2023-04-25T11:56:51;1.23;;;1.13;;
14592;SDS011;7383;52.354;9.756;2023-04-25T11:59:17;2.80;;;1.60;;
14592;SDS011;7383;52.354;9.756;2023-04-25T12:01:53;2.80;;;1.20;;
14592;SDS011;7383;52.354;9.756;2023-04-25T12:04:20;2.00;;;1.50;;
14592;SDS011;7383;52.354;9.756;2023-04-25T12:06:51;4.38;;;1.55;;
14592;SDS011;7383;52.354;9.756;2023-04-25T12:09:27;3.25;;;1.90;;
14592;SDS011;7383;52.354;9.756;2023-04-25T12:12:01;3.13;;;1.85;;
14592;SDS011;7383;52.354;9.756;2023-04-25T12:14:29;2.00;;;1.50;;
14592;SDS011;7383;52.354;9.756;2023-04-25T12:17:06;2.13;;;1.30;;
14592;SDS011;7383;52.354;9.756;2023-04-25T12:19:35;2.17;;;1.25;;
14592;SDS011;7383;52.354;9.756;2023-04-25T12:22:18;3.88;;;1.58;;
14592;SDS011;7383;52.354;9.756;2023-04-25T12:24:46;1.98;;;1.08;;
14592;SDS011;7383;52.354;9.756;2023-04-25T12:27:14;1.08;;;0.98;;
14592;SDS011;7383;52.354;9.756;2023-04-25T12:29:49;1.30;;;1.20;;
14592;SDS011;7383;52.354;9.756;2023-04-25T12:32:33;1.98;;;1.30;;
14592;SDS011;7383;52.354;9.756;2023-04-25T12:35:00;1.58;;;1.48;;
14592;SDS011;7383;52.354;9.756;2023-04-25T12:37:28;1.10;;;1.00;;
14592;SDS011;7383;52.354;9.756;2023-04-25T12:39:54;1.90;;;1.15;;
14592;SDS011;7383;52.354;9.756;2023-04-25T12:42:21;1.08;;;0.90;;
14592;SDS011;7383;52.354;9.756;2023-04-25T12:44:47;1.15;;;1.00;;
14592;SDS011;7383;52.354;9.756;2023-04-25T12:47:14;1.40;;;1.17;;
14592;SDS011;7383;52.354;9.756;2023-04-25T12:49:42;1.05;;;0.70;;
14592;SDS011;7383;52.354;9.756;2023-04-25T12:52:19;0.60;;;0.50;;
14592;SDS011;7383;52.354;9.756;2023-04-25T12:54:45;1.20;;;0.60;;
14592;SDS011;7383;52.354;9.756;2023-04-25T12:57:11;0.60;;;0.60;;
14592;SDS011;7383;52.354;9.756;2023-04-25T12:59:38;0.45;;;0.40;;
14592;SDS011;7383;52.354;9.756;2023-04-25T13:02:07;0.77;;;0.70;;
14592;SDS011;7383;52.354;9.756;2023-04-25T13:04:51;0.68;;;0.68;;
14592;SDS011;7383;52.354;9.756;2023-04-25T13:07:26;0.85;;;0.70;;
14592;SDS011;7383;52.354;9.756;2023-04-25T13:09:53;1.25;;;0.70;;
14592;SDS011;7383;52.354;9.756;2023-04-25T13:12:47;1.95;;;0.95;;
14592;SDS011;7383;52.354;9.756;2023-04-25T13:15:15;1.05;;;0.80;;
14592;SDS011;7383;52.354;9.756;2023-04-25T13:17:44;1.13;;;1.02;;
14592;SDS011;7383;52.354;9.756;2023-04-25T13:20:34;1.15;;;0.70;;
14592;SDS011;7383;52.354;9.756;2023-04-25T13:23:40;1.02;;;0.80;;
14592;SDS011;7383;52.354;9.756;2023-04-25T13:26:07;0.85;;;0.80;;
14592;SDS011;7383;52.354;9.756;2023-04-25T13:28:42;1.50;;;1.00;;
14592;SDS011;7383;52.354;9.756;2023-04-25T13:31:31;1.13;;;1.02;;
14592;SDS011;7383;52.354;9.756;2023-04-25T13:34:09;2.05;;;1.20;;
14592;SDS011;7383;52.354;9.756;2023-04-25T13:36:52;1.98;;;1.13;;
14592;SDS011;7383;52.354;9.756;2023-04-25T13:39:33;1.30;;;1.20;;
14592;SDS011;7383;52.354;9.756;2023-04-25T13:42:21;1.65;;;1.13;;
14592;SDS011;7383;52.354;9.756;2023-04-25T13:44:53;1.50;;;1.08;;
14592;SDS011;7383;52.354;9.756;2023-04-25T13:47:50;1.98;;;1.20;;
14592;SDS011;7383;52.354;9.756;2023-04-25T13:50:21;1.45;;;0.90;;
14592;SDS011;7383;52.354;9.756;2023-04-25T13:55:52;1.80;;;0.95;;
14592;SDS011;7383;52.354;9.756;2023-04-25T13:58:21;1.10;;;1.00;;
14592;SDS011;7383;52.354;9.756;2023-04-25T14:00:53;1.67;;;0.95;;
14592;SDS011;7383;52.354;9.756;2023-04-25T14:03:20;2.08;;;1.10;;
14592;SDS011;7383;52.354;9.756;2023-04-25T14:05:52;1.73;;;1.02;;
14592;SDS011;7383;52.354;9.756;2023-04-25T14:08:21;0.98;;;0.90;;
14592;SDS011;7383;52.354;9.756;2023-04-25T14:10:53;1.10;;;0.90;;
14592;SDS011;7383;52.354;9.756;2023-04-25T14:13:25;1.00;;;0.80;;
14592;SDS011;7383;52.354;9.756;2023-04-25T14:15:55;0.93;;;0.88;;
14592;SDS011;7383;52.354;9.756;2023-04-25T14:18:24;1.38;;;1.02;;
14592;SDS011;7383;52.354;9.756;2023-04-25T14:20:52;1.00;;;0.90;;
14592;SDS011;7383;52.354;9.756;2023-04-25T14:23:21;1.33;;;1.00;;
14592;SDS011;7383;52.354;9.756;2023-04-25T14:25:53;1.23;;;1.02;;
14592;SDS011;7383;52.354;9.756;2023-04-25T14:28:20;1.70;;;1.08;;
14592;SDS011;7383;52.354;9.756;2023-04-25T14:30:50;1.10;;;0.90;;
14592;SDS011;7383;52.354;9.756;2023-04-25T14:33:43;0.77;;;0.70;;
14592;SDS011;7383;52.354;9.756;2023-04-25T14:36:22;1.70;;;1.10;;
14592;SDS011;7383;52.354;9.756;2023-04-25T14:41:55;1.33;;;1.17;;
14592;SDS011;7383;52.354;9.756;2023-04-25T14:44:39;1.30;;;0.90;;
14592;SDS011;7383;52.354;9.756;2023-04-25T14:47:11;0.93;;;0.90;;
14592;SDS011;7383;52.354;9.756;2023-04-25T14:49:42;1.88;;;1.65;;
14592;SDS011;7383;52.354;9.756;2023-04-25T14:52:19;1.30;;;1.20;;
14592;SDS011;7383;52.354;9.756;2023-04-25T14:57:34;1.27;;;1.17;;
14592;SDS011;7383;52.354;9.756;2023-04-25T15:00:07;1.58;;;1.15;;
14592;SDS011;7383;52.354;9.756;2023-04-25T15:02:44;1.55;;;1.40;;
14592;SDS011;7383;52.354;9.756;2023-04-25T15:05:22;1.58;;;1.30;;
14592;SDS011;7383;52.354;9.756;2023-04-25T15:08:02;1.30;;;1.05;;
14592;SDS011;7383;52.354;9.756;2023-04-25T15:14:18;1.17;;;0.95;;
14592;SDS011;7383;52.354;9.756;2023-04-25T15:16:45;1.35;;;1.25;;
14592;SDS011;7383;52.354;9.756;2023-04-25T15:19:12;1.10;;;1.00;;
14592;SDS011;7383;52.354;9.756;2023-04-25T15:21:42;1.10;;;1.00;;
14592;SDS011;7383;52.354;9.756;2023-04-25T15:24:09;1.10;;;1.00;;
14592;SDS011;7383;52.354;9.756;2023-04-25T15:26:36;1.17;;;1.08;;
14592;SDS011;7383;52.354;9.756;2023-04-25T15:29:04;1.08;;;0.98;;
14592;SDS011;7383;52.354;9.756;2023-04-25T15:31:31;1.05;;;0.90;;
14592;SDS011;7383;52.354;9.756;2023-04-25T15:34:01;1.52;;;1.40;;
14592;SDS011;7383;52.354;9.756;2023-04-25T15:36:27;1.30;;;1.02;;
14592;SDS011;7383;52.354;9.756;2023-04-25T15:38:56;1.57;;;1.20;;
14592;SDS011;7383;52.354;9.756;2023-04-25T15:41:25;1.33;;;1.00;;
14592;SDS011;7383;52.354;9.756;2023-04-25T15:43:54;1.10;;;1.00;;
14592;SDS011;7383;52.354;9.756;2023-04-25T15:46:25;2.42;;;1.13;;
14592;SDS011;7383;52.354;9.756;2023-04-25T15:49:46;1.33;;;1.13;;
14592;SDS011;7383;52.354;9.756;2023-04-25T15:52:08;1.35;;;1.20;;
14592;SDS011;7383;52.354;9.756;2023-04-25T15:55:04;1.60;;;1.10;;
14592;SDS011;7383;52.354;9.756;2023-04-25T16:11:46;1.20;;;0.98;;
14592;SDS011;7383;52.354;9.756;2023-04-25T18:28:09;2.80;;;1.65;;
14592;SDS011;7383;52.354;9.756;2023-04-25T18:29:25;1.85;;;1.45;;
14592;SDS011;7383;52.354;9.756;2023-04-25T18:32:13;2.38;;;1.60;;
14592;SDS011;7383;52.354;9.756;2023-04-25T18:34:57;1.98;;;1.50;;
14592;SDS011;7383;52.354;9.756;2023-04-25T18:37:30;1.55;;;1.45;;
14592;SDS011;7383;52.354;9.756;2023-04-25T18:43:09;1.77;;;1.23;;
14592;SDS011;7383;52.354;9.756;2023-04-25T18:45:54;1.60;;;1.50;;
14592;SDS011;7383;52.354;9.756;2023-04-25T18:48:29;2.67;;;1.15;;
14592;SDS011;7383;52.354;9.756;2023-04-25T18:51:19;2.88;;;1.63;;
14592;SDS011;7383;52.354;9.756;2023-04-25T18:54:28;1.45;;;1.23;;
14592;SDS011;7383;52.354;9.756;2023-04-25T19:03:40;1.45;;;1.30;;
14592;SDS011;7383;52.354;9.756;2023-04-25T19:09:21;1.40;;;1.30;;
14592;SDS011;7383;52.354;9.756;2023-04-25T19:11:58;2.50;;;1.17;;
14592;SDS011;7383;52.354;9.756;2023-04-25T19:15:00;1.95;;;1.33;;
14592;SDS011;7383;52.354;9.756;2023-04-25T19:20:44;2.85;;;1.27;;
14592;SDS011;7383;52.354;9.756;2023-04-25T19:23:17;1.77;;;1.30;;
14592;SDS011;7383;52.354;9.756;2023-04-25T19:26:01;1.45;;;1.35;;
14592;SDS011;7383;52.354;9.756;2023-04-25T19:28:43;1.80;;;1.38;;
14592;SDS011;7383;52.354;9.756;2023-04-25T19:31:22;1.42;;;1.00;;
14592;SDS011;7383;52.354;9.756;2023-04-25T19:33:55;1.63;;;1.27;;